Time;durP1;ratioP1;P1;durP2;ratioP2;P2;SDS_P1;SDS_P2;PMS_P1;PMS_P2;Temp;Humidity;BMP_temperature;BMP_pressure;BME280_temperature;BME280_humidity;BME280_pressure;Samples;Min_cycle;Max_cycle;Signal;HPM_P1;HPM_P2
2021/05/17 00:02:15;;;;;;;1.10;1.10;;;;;;;;;;5079171;28;20131;-70
2021/05/17 00:04:42;;;;;;;1.38;1.30;;;;;;;;;;5087673;28;20106;-71
2021/05/17 00:07:09;;;;;;;1.33;1.23;;;;;;;;;;5074263;28;20402;-71
2021/05/17 00:09:36;;;;;;;1.52;1.42;;;;;;;;;;5072287;28;20539;-70
2021/05/17 00:12:03;;;;;;;1.38;1.30;;;;;;;;;;5076031;28;20033;-71
2021/05/17 00:14:29;;;;;;;1.40;1.30;;;;;;;;;;5080335;28;20421;-70
2021/05/17 00:16:56;;;;;;;1.40;1.30;;;;;;;;;;5082361;28;20483;-70
2021/05/17 00:19:22;;;;;;;1.33;1.23;;;;;;;;;;5078865;28;20420;-70
2021/05/17 00:21:48;;;;;;;1.50;1.33;;;;;;;;;;5069718;28;20505;-71
2021/05/17 00:24:15;;;;;;;1.30;1.30;;;;;;;;;;5083343;28;20032;-70
2021/05/17 00:26:41;;;;;;;1.40;1.30;;;;;;;;;;5075690;28;20044;-70
2021/05/17 00:29:09;;;;;;;1.33;1.23;;;;;;;;;;5074373;28;20017;-70
2021/05/17 00:31:35;;;;;;;1.70;1.20;;;;;;;;;;5084525;28;20040;-71
2021/05/17 00:34:01;;;;;;;1.43;1.33;;;;;;;;;;5077130;28;20025;-71
2021/05/17 00:36:28;;;;;;;1.20;1.00;;;;;;;;;;5077721;28;20314;-71
2021/05/17 00:38:54;;;;;;;1.48;1.38;;;;;;;;;;5072447;28;20036;-70
2021/05/17 00:41:20;;;;;;;1.50;1.40;;;;;;;;;;5080147;28;20021;-71
2021/05/17 00:43:47;;;;;;;1.63;1.50;;;;;;;;;;5077416;28;20429;-71
2021/05/17 00:46:13;;;;;;;1.30;1.20;;;;;;;;;;5067479;28;20120;-70
2021/05/17 00:48:39;;;;;;;1.65;1.30;;;;;;;;;;5078077;28;20457;-70
2021/05/17 00:51:06;;;;;;;1.50;1.40;;;;;;;;;;5087293;28;20058;-70
2021/05/17 00:53:33;;;;;;;1.20;1.10;;;;;;;;;;5079490;28;20024;-70
2021/05/17 00:56:00;;;;;;;1.30;1.20;;;;;;;;;;5079662;28;20132;-70
2021/05/17 00:58:26;;;;;;;1.50;1.40;;;;;;;;;;5083818;28;20514;-70
2021/05/17 01:00:52;;;;;;;1.73;1.40;;;;;;;;;;5079091;28;20274;-71
2021/05/17 01:03:18;;;;;;;1.45;1.33;;;;;;;;;;5069203;28;20258;-71
2021/05/17 01:05:45;;;;;;;1.08;1.08;;;;;;;;;;5078573;28;20372;-71
2021/05/17 01:08:17;;;;;;;1.40;1.30;;;;;;;;;;5077463;28;20079;-70
2021/05/17 01:10:44;;;;;;;1.50;1.40;;;;;;;;;;5077074;28;20032;-70
2021/05/17 01:13:11;;;;;;;1.40;1.30;;;;;;;;;;5074720;28;20566;-70
2021/05/17 01:15:37;;;;;;;;;;;;;;;;;;5077207;28;20498;-70
2021/05/17 01:18:03;;;;;;;1.30;1.20;;;;;;;;;;5087647;28;19908;-71
2021/05/17 01:20:32;;;;;;;1.20;1.17;;;;;;;;;;5086744;28;20035;-70
2021/05/17 01:25:48;;;;;;;1.27;1.27;;;;;;;;;;5076497;28;20066;-70
2021/05/17 01:28:20;;;;;;;1.40;1.30;;;;;;;;;;5072682;28;20078;-70
2021/05/17 01:30:47;;;;;;;1.27;1.17;;;;;;;;;;5084493;28;20086;-70
2021/05/17 01:33:13;;;;;;;1.50;1.40;;;;;;;;;;5077016;28;20052;-70
2021/05/17 01:35:41;;;;;;;1.40;1.30;;;;;;;;;;5073450;28;20166;-70
2021/05/17 01:38:07;;;;;;;1.45;1.35;;;;;;;;;;5082198;28;20275;-70
2021/05/17 01:40:35;;;;;;;1.20;1.20;;;;;;;;;;5080013;28;20036;-70
2021/05/17 01:43:01;;;;;;;1.40;1.30;;;;;;;;;;5072830;28;20034;-70
2021/05/17 01:45:29;;;;;;;1.33;1.23;;;;;;;;;;5085991;28;20049;-70
2021/05/17 01:47:57;;;;;;;1.35;1.25;;;;;;;;;;5079661;28;20075;-70
2021/05/17 01:50:23;;;;;;;1.40;1.27;;;;;;;;;;5078674;28;20048;-71
2021/05/17 01:52:50;;;;;;;1.40;1.30;;;;;;;;;;5079301;28;20021;-70
2021/05/17 01:55:17;;;;;;;1.65;1.30;;;;;;;;;;5077897;28;20028;-71
2021/05/17 01:57:43;;;;;;;;;;;;;;;;;;5090207;28;20039;-70
2021/05/17 02:00:10;;;;;;;1.10;1.10;;;;;;;;;;5083439;28;19912;-70
2021/05/17 02:02:36;;;;;;;1.40;1.30;;;;;;;;;;5078616;28;20020;-70
2021/05/17 02:05:03;;;;;;;2.28;1.27;;;;;;;;;;5083656;28;20473;-71
2021/05/17 02:07:29;;;;;;;1.98;1.20;;;;;;;;;;5084489;28;20024;-70
2021/05/17 02:09:55;;;;;;;1.00;1.00;;;;;;;;;;5074670;28;20418;-69
2021/05/17 02:12:24;;;;;;;1.40;1.30;;;;;;;;;;5081892;28;20035;-70
2021/05/17 02:14:51;;;;;;;1.30;1.20;;;;;;;;;;5078304;28;20503;-70
2021/05/17 02:17:17;;;;;;;1.50;1.30;;;;;;;;;;5074055;28;20038;-71
2021/05/17 02:19:45;;;;;;;1.08;1.05;;;;;;;;;;5076620;28;20032;-70
2021/05/17 02:22:11;;;;;;;1.17;1.17;;;;;;;;;;5080754;28;20043;-70
2021/05/17 02:24:37;;;;;;;1.70;1.27;;;;;;;;;;5079068;28;20036;-71
2021/05/17 02:27:07;;;;;;;1.13;1.13;;;;;;;;;;5078098;28;20477;-70
2021/05/17 02:29:34;;;;;;;1.40;1.30;;;;;;;;;;5084017;28;20126;-71
2021/05/17 02:32:00;;;;;;;2.60;1.40;;;;;;;;;;5077475;28;20082;-70
2021/05/17 02:34:26;;;;;;;3.43;1.30;;;;;;;;;;5079649;28;20031;-70
2021/05/17 02:36:52;;;;;;;1.10;1.10;;;;;;;;;;5071614;28;20520;-70
2021/05/17 02:39:18;;;;;;;1.27;1.20;;;;;;;;;;5073856;28;20820;-70
2021/05/17 02:41:44;;;;;;;3.87;1.47;;;;;;;;;;5078342;28;20279;-70
2021/05/17 02:44:11;;;;;;;1.10;1.10;;;;;;;;;;5082560;28;20032;-69
2021/05/17 02:46:37;;;;;;;1.23;1.23;;;;;;;;;;5076688;28;20052;-70
2021/05/17 02:49:04;;;;;;;1.25;1.25;;;;;;;;;;5078276;28;20027;-69
2021/05/17 02:51:31;;;;;;;1.30;1.20;;;;;;;;;;5083431;28;20124;-70
2021/05/17 02:54:08;;;;;;;1.17;1.17;;;;;;;;;;5077053;28;20115;-70
2021/05/17 02:56:36;;;;;;;1.23;1.23;;;;;;;;;;5071347;28;20032;-69
2021/05/17 02:59:05;;;;;;;1.35;1.25;;;;;;;;;;5082894;28;20042;-70
2021/05/17 03:01:36;;;;;;;1.00;1.00;;;;;;;;;;5077287;28;20020;-70
2021/05/17 03:04:07;;;;;;;1.20;1.20;;;;;;;;;;5073924;28;20036;-71
2021/05/17 03:06:40;;;;;;;2.72;1.10;;;;;;;;;;5078222;28;20024;-70
2021/05/17 03:09:07;;;;;;;1.23;1.13;;;;;;;;;;5078136;28;20360;-71
2021/05/17 03:11:36;;;;;;;1.08;1.08;;;;;;;;;;5078676;28;20039;-71
2021/05/17 03:14:02;;;;;;;1.27;1.17;;;;;;;;;;5082509;28;20040;-71
2021/05/17 03:16:29;;;;;;;1.00;0.98;;;;;;;;;;5072147;28;20039;-70
2021/05/17 03:18:56;;;;;;;1.30;1.20;;;;;;;;;;5072004;28;20384;-71
2021/05/17 03:21:24;;;;;;;1.70;1.08;;;;;;;;;;5070333;28;20094;-71
2021/05/17 03:23:51;;;;;;;0.82;0.82;;;;;;;;;;5088033;28;20028;-70
2021/05/17 03:26:18;;;;;;;1.10;1.10;;;;;;;;;;5081325;28;20086;-71
2021/05/17 03:28:44;;;;;;;1.17;1.10;;;;;;;;;;5078837;28;20547;-71
2021/05/17 03:31:10;;;;;;;1.30;1.23;;;;;;;;;;5079236;28;20032;-70
2021/05/17 03:33:36;;;;;;;3.93;1.60;;;;;;;;;;5077706;28;20028;-70
2021/05/17 03:36:02;;;;;;;1.50;1.40;;;;;;;;;;5086197;28;20111;-70
2021/05/17 03:38:28;;;;;;;1.50;1.40;;;;;;;;;;5087635;28;20025;-71
2021/05/17 03:40:54;;;;;;;0.80;0.80;;;;;;;;;;5074838;28;20024;-70
2021/05/17 03:43:20;;;;;;;1.38;1.27;;;;;;;;;;5078217;28;20401;-70
2021/05/17 03:45:46;;;;;;;2.47;1.50;;;;;;;;;;5086042;28;20044;-70
2021/05/17 03:48:12;;;;;;;1.20;1.20;;;;;;;;;;5084076;28;20115;-70
2021/05/17 03:50:38;;;;;;;1.20;1.20;;;;;;;;;;5078131;28;20374;-71
2021/05/17 03:53:04;;;;;;;1.57;1.10;;;;;;;;;;5076564;28;20032;-70
2021/05/17 03:55:30;;;;;;;1.23;1.07;;;;;;;;;;5076997;28;20039;-70
2021/05/17 03:57:57;;;;;;;1.23;1.20;;;;;;;;;;5073768;28;20122;-71
2021/05/17 04:00:23;;;;;;;;;;;;;;;;;;5087682;28;20028;-70
2021/05/17 04:02:49;;;;;;;1.25;1.10;;;;;;;;;;5072792;28;19915;-71
2021/05/17 04:15:49;;;;;;;1.13;1.13;;;;;;;;;;5080898;28;20485;-70
2021/05/17 04:18:16;;;;;;;;;;;;;;;;;;5086622;28;20044;-71
2021/05/17 04:20:43;;;;;;;1.15;1.15;;;;;;;;;;5074821;28;20408;-70
2021/05/17 04:23:09;;;;;;;1.50;1.05;;;;;;;;;;5077628;28;20454;-71
2021/05/17 04:25:35;;;;;;;1.10;1.10;;;;;;;;;;5086137;28;20070;-71
2021/05/17 04:28:01;;;;;;;3.40;1.15;;;;;;;;;;5088041;28;20064;-70
2021/05/17 04:30:27;;;;;;;0.93;0.93;;;;;;;;;;5079190;28;20094;-71
2021/05/17 04:32:54;;;;;;;1.55;1.25;;;;;;;;;;5076498;28;20020;-71
2021/05/17 04:35:20;;;;;;;1.10;1.10;;;;;;;;;;5076632;28;20028;-71
2021/05/17 04:37:46;;;;;;;1.10;1.10;;;;;;;;;;5079998;28;20082;-70
2021/05/17 04:40:13;;;;;;;2.13;1.25;;;;;;;;;;5082614;28;20028;-70
2021/05/17 04:42:41;;;;;;;;;;;;;;;;;;5072789;28;20165;-71
2021/05/17 04:45:07;;;;;;;0.93;0.90;;;;;;;;;;5080985;28;19970;-71
2021/05/17 04:47:33;;;;;;;1.30;1.20;;;;;;;;;;5085622;28;20123;-71
2021/05/17 04:49:59;;;;;;;1.08;0.85;;;;;;;;;;5071663;28;20123;-70
2021/05/17 04:52:25;;;;;;;2.00;0.90;;;;;;;;;;5078969;28;20032;-71
2021/05/17 04:54:51;;;;;;;0.90;0.90;;;;;;;;;;5076844;28;20285;-69
2021/05/17 04:57:17;;;;;;;1.90;1.03;;;;;;;;;;5079197;28;20365;-70
2021/05/17 04:59:43;;;;;;;0.73;0.73;;;;;;;;;;5078469;28;20051;-74
2021/05/17 05:02:09;;;;;;;4.73;1.23;;;;;;;;;;5079735;28;22016;-71
2021/05/17 05:04:35;;;;;;;0.82;0.82;;;;;;;;;;5073064;28;20678;-70
2021/05/17 05:07:01;;;;;;;1.80;1.05;;;;;;;;;;5079361;28;20118;-68
2021/05/17 05:09:28;;;;;;;4.72;1.23;;;;;;;;;;5079860;28;20028;-68
2021/05/17 05:11:54;;;;;;;;;;;;;;;;;;5085131;28;20044;-71
2021/05/17 05:14:20;;;;;;;12.13;1.58;;;;;;;;;;5074363;28;19916;-70
2021/05/17 05:16:46;;;;;;;4.85;1.35;;;;;;;;;;5079093;28;20028;-70
2021/05/17 05:19:12;;;;;;;1.10;1.00;;;;;;;;;;5081155;28;20024;-70
2021/05/17 05:21:38;;;;;;;2.75;1.23;;;;;;;;;;5073552;28;20107;-70
2021/05/17 05:24:04;;;;;;;4.40;1.42;;;;;;;;;;5073245;28;20025;-69
2021/05/17 05:34:18;;;;;;;1.13;1.02;;;;;;;;;;5080717;28;20047;-70
2021/05/17 05:36:44;;;;;;;2.75;1.27;;;;;;;;;;5088834;28;20031;-70
2021/05/17 05:39:10;;;;;;;1.92;1.40;;;;;;;;;;5072853;28;20059;-70
2021/05/17 05:41:36;;;;;;;2.25;1.30;;;;;;;;;;5083679;28;20032;-70
2021/05/17 05:44:03;;;;;;;5.25;1.30;;;;;;;;;;5072847;28;20111;-70
2021/05/17 05:46:29;;;;;;;3.47;1.13;;;;;;;;;;5081539;28;20416;-70
2021/05/17 05:48:57;;;;;;;6.65;1.20;;;;;;;;;;5076044;28;20037;-70
2021/05/17 05:51:24;;;;;;;1.80;1.00;;;;;;;;;;5088718;28;20044;-71
2021/05/17 05:53:50;;;;;;;6.07;1.10;;;;;;;;;;5081181;28;20502;-69
2021/05/17 05:56:17;;;;;;;2.50;1.30;;;;;;;;;;5072902;28;20032;-70
2021/05/17 05:58:43;;;;;;;1.83;1.13;;;;;;;;;;5086830;28;20049;-70
2021/05/17 06:01:10;;;;;;;3.20;1.30;;;;;;;;;;5071731;28;20136;-70
2021/05/17 06:03:36;;;;;;;;;;;;;;;;;;5072851;28;20028;-70
2021/05/17 06:06:01;;;;;;;2.38;1.30;;;;;;;;;;5076093;28;19909;-70
2021/05/17 06:08:27;;;;;;;2.08;0.95;;;;;;;;;;5082620;28;20102;-71
2021/05/17 06:10:54;;;;;;;1.20;1.00;;;;;;;;;;5080941;28;20044;-70
2021/05/17 06:13:20;;;;;;;2.75;0.98;;;;;;;;;;5079128;28;20143;-69
2021/05/17 06:15:46;;;;;;;1.45;0.90;;;;;;;;;;5077620;28;20053;-70
2021/05/17 06:18:13;;;;;;;1.52;1.02;;;;;;;;;;5080164;28;20028;-70
2021/05/17 06:20:40;;;;;;;0.75;0.70;;;;;;;;;;5082397;28;20032;-70
2021/05/17 06:23:06;;;;;;;;;;;;;;;;;;5075922;28;20036;-70
2021/05/17 06:25:32;;;;;;;0.95;0.90;;;;;;;;;;5081856;28;20037;-70
2021/05/17 06:27:58;;;;;;;0.80;0.80;;;;;;;;;;5077406;28;20029;-71
2021/05/17 06:30:24;;;;;;;1.02;0.90;;;;;;;;;;5071493;28;20066;-70
2021/05/17 06:32:51;;;;;;;2.22;0.95;;;;;;;;;;5074241;28;20055;-70
2021/05/17 06:35:23;;;;;;;1.23;1.02;;;;;;;;;;5079006;28;20413;-70
2021/05/17 06:37:49;;;;;;;2.00;1.10;;;;;;;;;;5075618;28;20050;-70
2021/05/17 06:40:15;;;;;;;1.05;1.00;;;;;;;;;;5079587;28;20031;-70
2021/05/17 06:42:41;;;;;;;1.20;1.10;;;;;;;;;;5086863;28;20055;-70
2021/05/17 06:45:07;;;;;;;0.98;0.98;;;;;;;;;;5082600;28;20017;-70
2021/05/17 06:47:34;;;;;;;0.80;0.80;;;;;;;;;;5081144;28;20370;-70
2021/05/17 06:50:00;;;;;;;1.13;0.80;;;;;;;;;;5076717;28;20051;-70
2021/05/17 06:52:26;;;;;;;1.40;1.10;;;;;;;;;;5075397;28;20120;-71
2021/05/17 06:55:03;;;;;;;1.20;0.88;;;;;;;;;;5087404;28;20222;-70
2021/05/17 06:57:50;;;;;;;1.48;1.10;;;;;;;;;;5079019;28;20050;-70
2021/05/17 07:02:56;;;;;;;1.63;1.17;;;;;;;;;;5071246;28;20050;-71
2021/05/17 07:05:22;;;;;;;1.17;1.00;;;;;;;;;;5077627;28;20098;-71
2021/05/17 07:11:33;;;;;;;1.20;1.10;;;;;;;;;;5071035;28;20406;-71
2021/05/17 07:13:25;;;;;;;2.92;1.15;;;;;;;;;;5078691;28;20105;-70
2021/05/17 07:15:52;;;;;;;2.38;1.20;;;;;;;;;;5080470;28;20082;-70
2021/05/17 07:18:18;;;;;;;2.05;1.30;;;;;;;;;;5089842;28;20149;-71
2021/05/17 07:25:55;;;;;;;3.83;1.80;;;;;;;;;;5085582;28;20046;-69
2021/05/17 07:28:21;;;;;;;3.97;1.58;;;;;;;;;;5078538;28;20059;-70
2021/05/17 07:30:47;;;;;;;3.45;1.58;;;;;;;;;;5078790;28;20036;-70
2021/05/17 07:33:14;;;;;;;2.55;1.63;;;;;;;;;;5086924;28;20032;-70
2021/05/17 07:35:40;;;;;;;4.38;1.90;;;;;;;;;;5081425;28;20040;-70
2021/05/17 07:38:06;;;;;;;4.77;2.10;;;;;;;;;;5080562;28;20089;-70
2021/05/17 07:40:32;;;;;;;3.35;1.80;;;;;;;;;;5077573;28;20094;-70
2021/05/17 07:42:58;;;;;;;4.57;1.83;;;;;;;;;;5069886;28;20028;-70
2021/05/17 07:45:24;;;;;;;4.72;2.10;;;;;;;;;;5074275;28;20535;-71
2021/05/17 07:47:50;;;;;;;4.40;1.40;;;;;;;;;;5082490;28;20040;-71
2021/05/17 07:50:16;;;;;;;2.78;1.50;;;;;;;;;;5079474;28;20036;-70
2021/05/17 07:52:42;;;;;;;4.15;1.67;;;;;;;;;;5077730;28;20042;-69
2021/05/17 07:55:09;;;;;;;2.30;1.10;;;;;;;;;;5078177;28;20600;-68
2021/05/17 07:57:35;;;;;;;2.58;1.30;;;;;;;;;;5078378;28;20298;-68
2021/05/17 08:00:01;;;;;;;1.43;1.23;;;;;;;;;;5079522;28;20117;-69
2021/05/17 08:02:27;;;;;;;1.73;1.40;;;;;;;;;;5074145;28;20063;-69
2021/05/17 08:04:53;;;;;;;3.30;1.80;;;;;;;;;;5086367;28;20020;-69
2021/05/17 08:07:20;;;;;;;3.17;1.70;;;;;;;;;;5071691;28;20041;-69
2021/05/17 08:09:46;;;;;;;1.95;1.60;;;;;;;;;;5082566;28;20111;-67
2021/05/17 08:12:12;;;;;;;2.00;1.25;;;;;;;;;;5074936;28;20028;-72
2021/05/17 08:14:39;;;;;;;1.48;1.10;;;;;;;;;;5075283;28;20042;-72
2021/05/17 08:17:05;;;;;;;1.38;1.20;;;;;;;;;;5083000;28;20194;-72
2021/05/17 08:19:32;;;;;;;1.10;1.02;;;;;;;;;;5071757;28;20028;-72
2021/05/17 08:21:58;;;;;;;1.55;1.10;;;;;;;;;;5074817;28;20041;-71
2021/05/17 08:24:25;;;;;;;1.30;1.13;;;;;;;;;;5069093;28;20038;-72
2021/05/17 08:26:50;;;;;;;;;;;;;;;;;;5075598;28;20063;-71
2021/05/17 08:29:16;;;;;;;1.25;1.00;;;;;;;;;;5073220;28;19908;-73
2021/05/17 08:31:45;;;;;;;0.97;0.97;;;;;;;;;;5081884;28;20080;-72
2021/05/17 08:34:11;;;;;;;0.77;0.77;;;;;;;;;;5076725;28;20037;-71
2021/05/17 08:36:37;;;;;;;4.00;1.00;;;;;;;;;;5073793;28;20035;-73
2021/05/17 08:39:05;;;;;;;4.75;1.08;;;;;;;;;;5081256;28;20433;-73
2021/05/17 08:41:33;;;;;;;5.57;1.05;;;;;;;;;;5081284;28;20036;-71
2021/05/17 08:43:59;;;;;;;1.10;1.00;;;;;;;;;;5078570;28;20031;-73
2021/05/17 08:46:26;;;;;;;1.02;0.70;;;;;;;;;;5079508;28;20044;-73
2021/05/17 08:48:52;;;;;;;1.05;0.95;;;;;;;;;;5075919;28;20479;-73
2021/05/17 08:51:39;;;;;;;2.08;0.90;;;;;;;;;;5087079;28;20040;-70
2021/05/17 08:54:06;;;;;;;;;;;;;;;;;;5078816;28;20020;-71
2021/05/17 08:56:33;;;;;;;1.02;0.85;;;;;;;;;;5080380;28;19922;-71
2021/05/17 08:59:00;;;;;;;1.23;0.80;;;;;;;;;;5081787;28;20044;-71
2021/05/17 09:01:26;;;;;;;2.17;0.82;;;;;;;;;;5073815;28;20151;-71
2021/05/17 09:03:53;;;;;;;2.42;0.98;;;;;;;;;;5073941;28;20031;-71
2021/05/17 09:06:22;;;;;;;1.00;1.00;;;;;;;;;;5087314;28;20037;-71
2021/05/17 09:08:48;;;;;;;1.45;0.80;;;;;;;;;;5083309;28;20019;-71
2021/05/17 09:11:29;;;;;;;0.45;0.45;;;;;;;;;;5080067;28;20127;-70
2021/05/17 09:14:06;;;;;;;0.80;0.68;;;;;;;;;;5080287;28;20020;-71
2021/05/17 09:16:52;;;;;;;0.88;0.80;;;;;;;;;;5080678;28;20050;-70
2021/05/17 09:19:18;;;;;;;0.55;0.55;;;;;;;;;;5072716;28;20029;-70
2021/05/17 09:21:59;;;;;;;0.75;0.73;;;;;;;;;;5072816;28;20032;-71
2021/05/17 09:24:39;;;;;;;0.77;0.77;;;;;;;;;;5077235;28;20371;-70
2021/05/17 09:27:06;;;;;;;0.77;0.57;;;;;;;;;;5078637;28;20039;-71
2021/05/17 09:29:43;;;;;;;0.75;0.63;;;;;;;;;;5072733;28;20070;-70
2021/05/17 09:32:10;;;;;;;1.63;0.85;;;;;;;;;;5076298;28;20028;-71
2021/05/17 09:34:36;;;;;;;1.75;0.95;;;;;;;;;;5075567;28;20028;-69
2021/05/17 09:37:03;;;;;;;0.77;0.77;;;;;;;;;;5074963;28;20114;-70
2021/05/17 09:39:29;;;;;;;0.95;0.75;;;;;;;;;;5085601;28;20762;-70
2021/05/17 09:41:57;;;;;;;1.48;0.88;;;;;;;;;;5081971;28;20028;-70
2021/05/17 09:44:24;;;;;;;1.05;0.95;;;;;;;;;;5081490;28;20036;-70
2021/05/17 09:47:09;;;;;;;0.75;0.75;;;;;;;;;;5079523;28;20279;-70
2021/05/17 09:49:36;;;;;;;0.80;0.80;;;;;;;;;;5076836;28;20033;-69
2021/05/17 09:52:08;;;;;;;0.80;0.80;;;;;;;;;;5074355;28;20052;-70
2021/05/17 09:54:53;;;;;;;1.60;0.65;;;;;;;;;;5075024;28;20501;-70
2021/05/17 09:57:23;;;;;;;0.80;0.80;;;;;;;;;;5080244;28;20115;-70
2021/05/17 09:59:50;;;;;;;0.98;0.80;;;;;;;;;;5077208;28;20093;-70
2021/05/17 10:02:26;;;;;;;0.65;0.65;;;;;;;;;;5082269;28;20044;-70
2021/05/17 10:04:52;;;;;;;2.03;0.85;;;;;;;;;;5082040;28;20074;-70
2021/05/17 10:07:18;;;;;;;0.87;0.80;;;;;;;;;;5082502;28;20064;-70
2021/05/17 10:09:44;;;;;;;0.80;0.80;;;;;;;;;;5079735;28;20337;-70
2021/05/17 10:12:11;;;;;;;0.80;0.80;;;;;;;;;;5079270;28;20158;-70
2021/05/17 10:14:37;;;;;;;1.40;0.90;;;;;;;;;;5090127;28;20032;-70
2021/05/17 10:17:03;;;;;;;0.93;0.93;;;;;;;;;;5077065;28;20025;-70
2021/05/17 10:19:29;;;;;;;0.37;0.37;;;;;;;;;;5079333;28;20035;-70
2021/05/17 10:21:55;;;;;;;2.70;1.07;;;;;;;;;;5075758;28;20039;-69
2021/05/17 10:24:21;;;;;;;0.70;0.70;;;;;;;;;;5083289;28;20270;-71
2021/05/17 10:26:47;;;;;;;0.83;0.80;;;;;;;;;;5081928;28;20051;-69
2021/05/17 10:29:13;;;;;;;1.00;0.80;;;;;;;;;;5075455;28;20054;-71
2021/05/17 10:31:51;;;;;;;1.47;0.83;;;;;;;;;;5083584;28;20035;-70
2021/05/17 10:34:17;;;;;;;0.95;0.68;;;;;;;;;;5087392;28;20044;-70
2021/05/17 10:36:57;;;;;;;0.83;0.67;;;;;;;;;;5079491;28;20037;-70
2021/05/17 10:39:45;;;;;;;2.03;0.88;;;;;;;;;;5078149;28;20444;-71
2021/05/17 10:42:37;;;;;;;1.95;0.80;;;;;;;;;;5076428;28;20027;-70
2021/05/17 10:47:49;;;;;;;0.80;0.80;;;;;;;;;;5082842;28;20059;-69
2021/05/17 10:50:21;;;;;;;0.70;0.70;;;;;;;;;;5078662;28;20042;-70
2021/05/17 10:52:47;;;;;;;1.10;0.75;;;;;;;;;;5080685;28;20072;-68
2021/05/17 10:55:15;;;;;;;0.63;0.63;;;;;;;;;;5084411;28;20055;-70
2021/05/17 10:57:47;;;;;;;0.85;0.85;;;;;;;;;;5078575;28;20462;-69
2021/05/17 11:00:24;;;;;;;0.75;0.75;;;;;;;;;;5074508;28;20031;-70
2021/05/17 11:03:05;;;;;;;0.80;0.80;;;;;;;;;;5080052;28;20038;-69
2021/05/17 11:05:32;;;;;;;1.00;0.65;;;;;;;;;;5087663;28;20127;-70
2021/05/17 11:08:00;;;;;;;1.08;0.45;;;;;;;;;;5081112;28;20035;-70
2021/05/17 11:10:27;;;;;;;0.75;0.70;;;;;;;;;;5081462;28;20059;-70
2021/05/17 11:12:54;;;;;;;0.60;0.60;;;;;;;;;;5077438;28;20036;-69
2021/05/17 11:15:21;;;;;;;1.90;0.68;;;;;;;;;;5088858;28;20036;-70
2021/05/17 11:18:06;;;;;;;0.82;0.82;;;;;;;;;;5081302;28;20036;-71
2021/05/17 11:20:41;;;;;;;0.70;0.70;;;;;;;;;;5081373;28;20382;-69
2021/05/17 11:23:19;;;;;;;0.82;0.70;;;;;;;;;;5079075;28;20033;-70
2021/05/17 11:25:49;;;;;;;0.65;0.65;;;;;;;;;;5077850;28;20040;-71
2021/05/17 11:28:15;;;;;;;0.70;0.70;;;;;;;;;;5083269;28;20502;-70
2021/05/17 11:30:42;;;;;;;0.70;0.70;;;;;;;;;;5081815;28;20080;-70
2021/05/17 11:33:08;;;;;;;;;;;;;;;;;;5083042;28;20419;-70
2021/05/17 11:35:34;;;;;;;0.80;0.70;;;;;;;;;;5077675;28;19916;-70
2021/05/17 11:38:07;;;;;;;0.80;0.80;;;;;;;;;;5081551;28;20052;-70
2021/05/17 11:40:34;;;;;;;0.52;0.52;;;;;;;;;;5078781;28;20088;-70
2021/05/17 11:43:00;;;;;;;0.45;0.45;;;;;;;;;;5071655;28;20021;-70
2021/05/17 11:45:27;;;;;;;0.73;0.65;;;;;;;;;;5073508;28;20439;-69
2021/05/17 11:47:53;;;;;;;0.68;0.68;;;;;;;;;;5080854;28;20548;-70
2021/05/17 11:50:22;;;;;;;0.63;0.63;;;;;;;;;;5085238;28;20025;-70
2021/05/17 11:52:48;;;;;;;0.75;0.75;;;;;;;;;;5088721;28;20028;-70
2021/05/17 11:55:14;;;;;;;0.60;0.60;;;;;;;;;;5080703;28;20413;-69
2021/05/17 11:57:42;;;;;;;0.77;0.57;;;;;;;;;;5088369;28;20036;-70
2021/05/17 12:00:09;;;;;;;0.60;0.60;;;;;;;;;;5071567;28;20305;-70
2021/05/17 12:02:35;;;;;;;0.95;0.95;;;;;;;;;;5073736;28;20485;-70
2021/05/17 12:05:00;;;;;;;0.40;0.40;;;;;;;;;;5076932;28;20028;-73
2021/05/17 12:07:26;;;;;;;0.77;0.77;;;;;;;;;;5074128;28;20121;-71
2021/05/17 12:09:58;;;;;;;1.57;0.70;;;;;;;;;;5080775;28;20024;-71
2021/05/17 12:12:25;;;;;;;1.20;0.68;;;;;;;;;;5072264;28;20040;-71
2021/05/17 12:15:03;;;;;;;0.40;0.40;;;;;;;;;;5084744;28;20108;-71
2021/05/17 12:17:32;;;;;;;0.95;0.60;;;;;;;;;;5074531;28;20439;-71
2021/05/17 12:19:59;;;;;;;0.75;0.75;;;;;;;;;;5076009;28;20016;-71
2021/05/17 12:22:30;;;;;;;0.88;0.68;;;;;;;;;;5083794;28;20520;-71
2021/05/17 12:24:56;;;;;;;0.60;0.52;;;;;;;;;;5077504;28;20028;-72
2021/05/17 12:27:23;;;;;;;2.08;0.75;;;;;;;;;;5085677;28;20045;-73
2021/05/17 12:29:49;;;;;;;0.68;0.68;;;;;;;;;;5075810;28;20046;-72
2021/05/17 12:32:15;;;;;;;0.60;0.60;;;;;;;;;;5084019;28;20040;-71
2021/05/17 12:35:04;;;;;;;0.70;0.57;;;;;;;;;;5072962;28;20153;-71
2021/05/17 12:37:33;;;;;;;0.75;0.65;;;;;;;;;;5073448;28;20033;-68
2021/05/17 12:40:13;;;;;;;1.08;0.73;;;;;;;;;;5076821;28;20090;-67
2021/05/17 12:42:40;;;;;;;0.45;0.45;;;;;;;;;;5076313;28;20031;-66
2021/05/17 12:45:06;;;;;;;;;;;;;;;;;;5084758;28;20036;-67
2021/05/17 12:47:39;;;;;;;0.60;0.60;;;;;;;;;;5077275;28;19966;-66
2021/05/17 12:50:06;;;;;;;0.90;0.60;;;;;;;;;;5074674;28;20044;-66
2021/05/17 12:52:33;;;;;;;0.98;0.68;;;;;;;;;;5085890;28;20040;-67
2021/05/17 12:55:13;;;;;;;0.60;0.35;;;;;;;;;;5087964;28;20494;-66
2021/05/17 12:58:00;;;;;;;0.30;0.30;;;;;;;;;;5088961;28;20502;-67
2021/05/17 13:00:35;;;;;;;0.50;0.43;;;;;;;;;;5077067;28;20044;-67
2021/05/17 13:03:01;;;;;;;0.40;0.40;;;;;;;;;;5086996;28;20032;-67
2021/05/17 13:05:27;;;;;;;1.42;0.40;;;;;;;;;;5079475;28;20062;-67
2021/05/17 13:08:00;;;;;;;0.30;0.30;;;;;;;;;;5086267;28;20036;-67
2021/05/17 13:10:26;;;;;;;0.50;0.50;;;;;;;;;;5078644;28;20070;-67
2021/05/17 13:12:54;;;;;;;0.30;0.30;;;;;;;;;;5073223;28;20032;-66
2021/05/17 13:15:21;;;;;;;2.47;0.85;;;;;;;;;;5076954;28;20047;-69
2021/05/17 13:18:00;;;;;;;0.40;0.40;;;;;;;;;;5073082;28;20035;-66
2021/05/17 13:20:28;;;;;;;0.30;0.28;;;;;;;;;;5076405;28;20093;-69
2021/05/17 13:31:50;;;;;;;1.02;0.68;;;;;;;;;;5084795;28;20090;-70
2021/05/17 13:34:16;;;;;;;0.90;0.75;;;;;;;;;;5080203;28;20111;-69
2021/05/17 13:36:42;;;;;;;0.60;0.60;;;;;;;;;;5079427;28;20099;-66
2021/05/17 13:39:08;;;;;;;0.68;0.68;;;;;;;;;;5071974;28;20457;-67
2021/05/17 13:41:34;;;;;;;0.87;0.87;;;;;;;;;;5079868;28;20032;-67
2021/05/17 13:44:00;;;;;;;0.87;0.80;;;;;;;;;;5080532;28;20677;-67
2021/05/17 13:46:27;;;;;;;0.75;0.75;;;;;;;;;;5086429;28;20532;-67
2021/05/17 13:48:53;;;;;;;;;;;;;;;;;;5088223;28;20031;-67
2021/05/17 13:51:20;;;;;;;0.65;0.65;;;;;;;;;;5085000;28;19916;-67
2021/05/17 13:53:46;;;;;;;0.70;0.70;;;;;;;;;;5082713;28;20046;-67
2021/05/17 13:56:12;;;;;;;6.15;0.98;;;;;;;;;;5081234;28;20016;-70
2021/05/17 13:58:39;;;;;;;2.60;1.02;;;;;;;;;;5074832;28;20047;-68
2021/05/17 14:01:05;;;;;;;6.95;1.20;;;;;;;;;;5086794;28;20466;-67
2021/05/17 14:03:31;;;;;;;5.50;0.95;;;;;;;;;;5082195;28;20046;-67
2021/05/17 14:05:57;;;;;;;3.47;1.10;;;;;;;;;;5088069;28;21711;-70
2021/05/17 14:08:23;;;;;;;4.70;0.90;;;;;;;;;;5078754;28;20056;-67
2021/05/17 14:10:49;;;;;;;4.53;1.30;;;;;;;;;;5078944;28;20481;-66
2021/05/17 14:13:15;;;;;;;1.70;1.02;;;;;;;;;;5082718;28;20518;-67
2021/05/17 14:15:41;;;;;;;8.07;1.47;;;;;;;;;;5080651;28;20107;-68
2021/05/17 14:18:07;;;;;;;9.37;1.30;;;;;;;;;;5077725;28;20020;-67
2021/05/17 14:20:34;;;;;;;7.47;1.30;;;;;;;;;;5077348;28;20271;-67
2021/05/17 14:23:00;;;;;;;3.25;1.20;;;;;;;;;;5074513;28;20037;-67
2021/05/17 14:25:26;;;;;;;1.98;1.20;;;;;;;;;;5080716;28;20051;-68
2021/05/17 14:27:52;;;;;;;1.98;0.93;;;;;;;;;;5086378;28;20050;-69
2021/05/17 14:30:19;;;;;;;2.80;1.27;;;;;;;;;;5076682;28;20032;-69
2021/05/17 14:32:45;;;;;;;2.17;0.98;;;;;;;;;;5075059;28;20080;-68
2021/05/17 14:35:13;;;;;;;5.22;0.98;;;;;;;;;;5082853;28;20114;-68
2021/05/17 14:37:39;;;;;;;1.83;0.93;;;;;;;;;;5089734;28;20054;-70
2021/05/17 14:40:06;;;;;;;4.78;1.30;;;;;;;;;;5079552;28;20032;-69
2021/05/17 14:42:32;;;;;;;;;;;;;;;;;;5078781;28;20040;-70
2021/05/17 14:44:58;;;;;;;1.40;1.10;;;;;;;;;;5079860;28;20263;-69
2021/05/17 14:47:25;;;;;;;1.67;1.30;;;;;;;;;;5082779;28;20516;-70
2021/05/17 14:49:51;;;;;;;;;;;;;;;;;;5081590;28;20020;-68
2021/05/17 14:52:17;;;;;;;3.70;1.35;;;;;;;;;;5084645;28;19977;-68
2021/05/17 14:54:44;;;;;;;1.87;1.30;;;;;;;;;;5089562;28;20115;-68
2021/05/17 14:57:09;;;;;;;;;;;;;;;;;;5084510;28;20050;-68
2021/05/17 14:59:35;;;;;;;1.48;1.25;;;;;;;;;;5075082;28;19912;-70
2021/05/17 15:02:01;;;;;;;2.57;1.33;;;;;;;;;;5076044;28;20482;-67
2021/05/17 15:04:28;;;;;;;1.23;1.00;;;;;;;;;;5082671;28;20048;-67
2021/05/17 15:06:54;;;;;;;3.90;1.17;;;;;;;;;;5085986;28;20024;-69
2021/05/17 15:09:20;;;;;;;0.90;0.90;;;;;;;;;;5075202;28;20274;-69
2021/05/17 15:11:46;;;;;;;1.50;1.20;;;;;;;;;;5082752;28;20041;-68
2021/05/17 15:14:12;;;;;;;1.65;1.20;;;;;;;;;;5078502;28;20092;-65
2021/05/17 15:16:39;;;;;;;4.97;1.40;;;;;;;;;;5071678;28;20033;-67
2021/05/17 15:19:06;;;;;;;6.65;1.27;;;;;;;;;;5073118;28;20024;-65
2021/05/17 15:21:32;;;;;;;1.13;1.02;;;;;;;;;;5076458;28;20031;-68
2021/05/17 15:23:58;;;;;;;2.20;1.20;;;;;;;;;;5090780;28;20024;-66
2021/05/17 15:26:25;;;;;;;1.45;1.20;;;;;;;;;;5082871;28;20040;-66
2021/05/17 15:28:51;;;;;;;1.38;1.00;;;;;;;;;;5070228;28;20025;-68
2021/05/17 15:31:17;;;;;;;1.77;1.15;;;;;;;;;;5077949;28;20131;-70
2021/05/17 15:33:43;;;;;;;2.47;1.40;;;;;;;;;;5079739;28;20036;-68
2021/05/17 15:36:09;;;;;;;3.80;1.30;;;;;;;;;;5084409;28;20087;-67